createdAt,value
2023-11-30T00:02:58.189Z,6.82
2023-11-30T00:09:04.823Z,8.68
2023-11-30T00:12:08.468Z,10.57
2023-11-30T00:15:11.014Z,8.25
2023-11-30T00:18:13.174Z,8.23
2023-11-30T00:21:15.172Z,7.88
2023-11-30T00:24:17.352Z,9.15
2023-11-30T00:30:22.596Z,10.80
2023-11-30T00:33:24.746Z,8.75
2023-11-30T00:36:26.827Z,7.28
2023-11-30T00:39:28.893Z,7.20
2023-11-30T00:42:32.181Z,7.50
2023-11-30T00:45:34.135Z,6.63
2023-11-30T00:48:36.583Z,7.60
2023-11-30T00:51:38.553Z,7.38
2023-11-30T00:54:40.514Z,8.02
2023-11-30T00:57:43.805Z,7.30
2023-11-30T01:00:45.744Z,7.72
2023-11-30T01:03:48.879Z,8.18
2023-11-30T01:06:51.314Z,7.85
2023-11-30T01:09:53.266Z,20.80
2023-11-30T01:12:56.569Z,8.93
2023-11-30T01:15:58.698Z,8.60
2023-11-30T01:19:00.821Z,8.52
2023-11-30T01:25:05.815Z,8.00
2023-11-30T01:28:09.155Z,7.05
2023-11-30T01:31:10.919Z,8.10
2023-11-30T01:34:12.985Z,7.35
2023-11-30T01:37:15.000Z,7.72
2023-11-30T01:40:17.371Z,6.03
2023-11-30T01:43:22.755Z,7.57
2023-11-30T01:46:24.692Z,7.70
2023-11-30T01:49:28.403Z,7.82
2023-11-30T01:52:30.840Z,7.72
2023-11-30T01:55:33.583Z,7.82
2023-11-30T01:58:39.787Z,8.02
2023-11-30T02:01:43.223Z,7.10
2023-11-30T02:04:49.900Z,7.20
2023-11-30T02:07:52.106Z,7.38
2023-11-30T02:13:57.494Z,7.70
2023-11-30T02:16:59.400Z,10.13
2023-11-30T02:20:03.762Z,7.80
2023-11-30T02:23:07.194Z,7.78
2023-11-30T02:26:10.289Z,9.27
2023-11-30T02:29:16.606Z,7.43
2023-11-30T02:32:18.732Z,7.93
2023-11-30T02:38:24.193Z,14.38
2023-11-30T02:41:26.193Z,15.25
2023-11-30T02:44:28.361Z,8.98
2023-11-30T02:50:32.115Z,7.97
2023-11-30T02:56:40.476Z,8.50
2023-11-30T02:59:42.388Z,8.30
2023-11-30T03:02:45.721Z,7.72
2023-11-30T03:05:47.686Z,10.50
2023-11-30T03:08:51.966Z,8.48
2023-11-30T03:11:54.071Z,13.77
2023-11-30T03:17:58.045Z,7.68
2023-11-30T03:24:03.392Z,13.70
2023-11-30T03:27:05.388Z,8.52
2023-11-30T03:30:08.747Z,8.52
2023-11-30T03:33:10.800Z,8.60
2023-11-30T03:39:16.053Z,7.13
2023-11-30T03:42:18.063Z,7.88
2023-11-30T03:45:20.154Z,7.68
2023-11-30T03:51:24.414Z,7.10
2023-11-30T03:54:27.794Z,8.57
2023-11-30T03:57:29.959Z,6.88
2023-11-30T04:03:34.090Z,7.68
2023-11-30T04:09:39.639Z,6.88
2023-11-30T04:12:42.061Z,6.95
2023-11-30T04:15:44.346Z,6.90
2023-11-30T04:18:46.452Z,6.63
2023-11-30T04:21:48.414Z,7.20
2023-11-30T04:24:52.290Z,7.15
2023-11-30T04:27:54.360Z,7.90
2023-11-30T04:30:57.917Z,7.93
2023-11-30T04:34:00.498Z,7.25
2023-11-30T04:37:02.452Z,8.35
2023-11-30T04:40:07.575Z,8.00
2023-11-30T04:43:09.643Z,6.80
2023-11-30T04:46:11.859Z,7.75
2023-11-30T04:49:14.147Z,7.47
2023-11-30T04:52:19.021Z,8.05
2023-11-30T04:55:22.511Z,8.48
2023-11-30T04:58:25.028Z,8.25
2023-11-30T05:01:27.001Z,8.50
2023-11-30T05:04:28.981Z,8.95
2023-11-30T05:10:34.230Z,8.80
2023-11-30T05:13:36.459Z,7.28
2023-11-30T05:16:38.509Z,8.70
2023-11-30T05:22:42.199Z,7.17
2023-11-30T05:25:45.727Z,7.50
2023-11-30T05:28:47.882Z,7.00
2023-11-30T05:34:52.932Z,6.95
2023-11-30T05:37:54.945Z,8.05
2023-11-30T05:40:59.523Z,7.82
2023-11-30T05:44:01.604Z,8.13
2023-11-30T05:50:06.271Z,7.75
2023-11-30T05:53:08.359Z,7.25
2023-11-30T05:59:13.486Z,7.05
2023-11-30T06:02:18.603Z,7.70
2023-11-30T06:05:20.749Z,7.28
2023-11-30T06:11:25.618Z,7.90
2023-11-30T06:14:27.426Z,7.95
2023-11-30T06:17:29.411Z,7.18
2023-11-30T06:20:32.422Z,7.80
2023-11-30T06:23:34.352Z,7.43
2023-11-30T06:26:37.651Z,7.72
2023-11-30T06:29:39.506Z,6.85
2023-11-30T06:32:41.473Z,7.80
2023-11-30T06:35:43.857Z,6.47
2023-11-30T06:38:46.076Z,6.85
2023-11-30T06:44:54.512Z,6.60
2023-11-30T06:47:56.596Z,7.43
2023-11-30T06:54:00.498Z,6.73
2023-11-30T07:00:10.581Z,5.43
2023-11-30T07:03:14.355Z,6.28
2023-11-30T07:06:16.705Z,6.22
2023-11-30T07:09:18.780Z,7.60
2023-11-30T07:15:23.830Z,5.38
2023-11-30T07:18:25.975Z,7.00
2023-11-30T07:24:30.986Z,7.40
2023-11-30T07:27:34.298Z,6.35
2023-11-30T07:30:37.571Z,5.82
2023-11-30T07:33:39.527Z,5.43
2023-11-30T07:36:42.023Z,5.45
2023-11-30T07:39:43.962Z,5.90
2023-11-30T07:42:47.263Z,6.15
2023-11-30T07:45:50.125Z,6.03
2023-11-30T07:48:52.140Z,5.00
2023-11-30T07:51:54.045Z,5.30
2023-11-30T07:54:56.089Z,6.10
2023-11-30T08:01:01.982Z,5.55
2023-11-30T08:04:04.859Z,5.65
2023-11-30T08:07:06.769Z,5.70
2023-11-30T08:10:09.021Z,5.28
2023-11-30T08:13:14.118Z,5.88
2023-11-30T08:16:16.199Z,5.82
2023-11-30T08:22:19.925Z,6.83
2023-11-30T08:28:25.907Z,7.22
2023-11-30T08:31:28.405Z,7.53
2023-11-30T08:34:30.313Z,6.72
2023-11-30T08:37:32.319Z,4.95
2023-11-30T08:40:34.342Z,5.10
2023-11-30T08:46:39.837Z,5.57
2023-11-30T08:49:41.807Z,5.28
2023-11-30T08:52:43.646Z,6.43
2023-11-30T08:55:46.760Z,5.55
2023-11-30T08:58:50.525Z,7.03
2023-11-30T09:01:52.858Z,7.43
2023-11-30T09:04:55.047Z,10.38
2023-11-30T09:10:58.681Z,6.77
2023-11-30T09:14:02.050Z,9.35
2023-11-30T09:17:05.582Z,7.38
2023-11-30T09:20:09.700Z,9.18
2023-11-30T09:23:11.559Z,6.85
2023-11-30T09:26:13.521Z,6.78
2023-11-30T09:29:16.749Z,6.88
2023-11-30T09:32:18.680Z,6.95
2023-11-30T09:35:20.556Z,6.68
2023-11-30T09:38:22.625Z,7.88
2023-11-30T09:41:24.747Z,7.25
2023-11-30T09:47:30.135Z,7.13
2023-11-30T09:50:32.412Z,8.05
2023-11-30T09:53:34.328Z,7.70
2023-11-30T09:56:36.331Z,7.53
2023-11-30T09:59:40.153Z,7.40
2023-11-30T10:02:51.595Z,7.03
2023-11-30T10:05:53.708Z,7.10
2023-11-30T10:09:02.058Z,7.90
2023-11-30T10:12:05.030Z,7.60
2023-11-30T10:15:10.697Z,8.43
2023-11-30T10:18:13.447Z,7.45
2023-11-30T10:21:15.358Z,7.55
2023-11-30T10:24:17.269Z,8.13
2023-11-30T10:27:22.506Z,7.18
2023-11-30T10:30:26.977Z,6.43
2023-11-30T10:33:30.311Z,8.27
2023-11-30T10:36:33.429Z,7.65
2023-11-30T10:39:42.748Z,6.40
2023-11-30T10:42:48.581Z,7.38
2023-11-30T10:45:55.206Z,7.70
2023-11-30T10:48:57.578Z,8.07
2023-11-30T10:52:03.800Z,8.35
2023-11-30T10:55:10.415Z,7.07
2023-11-30T10:58:12.893Z,8.23
2023-11-30T11:01:16.082Z,7.97
2023-11-30T11:04:18.041Z,7.82
2023-11-30T11:07:20.250Z,7.20
2023-11-30T11:13:25.998Z,7.03
2023-11-30T11:16:37.844Z,6.63
2023-11-30T11:19:41.504Z,6.78
2023-11-30T11:22:44.105Z,7.25
2023-11-30T11:25:47.745Z,6.30
2023-11-30T11:28:50.741Z,6.63
2023-11-30T11:31:55.093Z,5.82
2023-11-30T11:34:57.461Z,7.82
2023-11-30T11:38:00.330Z,7.38
2023-11-30T11:41:02.512Z,5.97
2023-11-30T11:44:04.460Z,6.35
2023-11-30T11:47:08.000Z,7.38
2023-11-30T11:50:14.828Z,6.13
2023-11-30T11:53:16.982Z,6.40
2023-11-30T11:56:18.988Z,7.32
2023-11-30T11:59:22.259Z,6.00
2023-11-30T12:02:26.436Z,5.60
2023-11-30T12:05:28.841Z,6.53
2023-11-30T12:08:31.475Z,6.03
2023-11-30T12:11:33.456Z,6.18
2023-11-30T12:14:36.246Z,5.82
2023-11-30T12:17:40.347Z,5.93
2023-11-30T12:20:44.433Z,4.85
2023-11-30T12:23:47.340Z,5.07
2023-11-30T12:26:49.494Z,6.40
2023-11-30T12:32:54.632Z,5.47
2023-11-30T12:35:57.161Z,5.22
2023-11-30T12:38:59.073Z,4.97
2023-11-30T12:42:01.896Z,5.35
2023-11-30T12:45:06.313Z,5.72
2023-11-30T12:48:09.786Z,6.03
2023-11-30T12:51:11.838Z,5.88
2023-11-30T12:54:14.319Z,6.32
2023-11-30T12:57:16.935Z,6.00
2023-11-30T13:00:19.949Z,6.30
2023-11-30T13:03:24.591Z,6.47
2023-11-30T13:06:26.935Z,5.65
2023-11-30T13:09:33.714Z,5.93
2023-11-30T13:12:36.407Z,6.72
2023-11-30T13:15:38.538Z,6.45
2023-11-30T13:21:44.543Z,5.65
2023-11-30T13:27:49.004Z,6.15
2023-11-30T13:30:51.487Z,6.53
2023-11-30T13:33:55.027Z,6.22
2023-11-30T13:36:57.382Z,7.18
2023-11-30T13:39:59.609Z,6.53
2023-11-30T13:46:05.905Z,6.20
2023-11-30T13:49:14.744Z,6.75
2023-11-30T13:52:17.523Z,6.93
2023-11-30T13:55:20.234Z,6.95
2023-11-30T13:58:23.511Z,6.72
2023-11-30T14:01:25.494Z,7.00
2023-11-30T14:04:34.260Z,7.85
2023-11-30T14:07:36.880Z,7.00
2023-11-30T14:10:40.533Z,6.45
2023-11-30T14:13:46.048Z,6.72
2023-11-30T14:22:59.359Z,10.52
2023-11-30T14:26:01.821Z,13.63
2023-11-30T14:29:04.603Z,10.40
2023-11-30T14:32:09.252Z,7.80
2023-11-30T14:35:13.389Z,8.80
2023-11-30T14:38:15.750Z,8.13
2023-11-30T14:41:17.996Z,7.97
2023-11-30T14:44:20.692Z,13.43
2023-11-30T14:47:27.088Z,10.30
2023-11-30T14:50:32.424Z,17.02
2023-11-30T14:53:35.087Z,11.02
2023-11-30T14:56:37.384Z,10.68
2023-11-30T14:59:40.337Z,8.85
2023-11-30T15:02:43.153Z,7.47
2023-11-30T15:05:47.359Z,7.50
2023-11-30T15:08:52.407Z,7.57
2023-11-30T15:11:56.039Z,7.80
2023-11-30T15:14:58.158Z,7.65
2023-11-30T15:21:03.562Z,7.00
2023-11-30T15:24:06.006Z,6.63
2023-11-30T15:27:08.071Z,7.82
2023-11-30T15:30:12.123Z,8.02
2023-11-30T15:33:17.947Z,8.98
2023-11-30T15:36:22.124Z,7.82
2023-11-30T15:39:25.426Z,8.48
2023-11-30T15:42:27.390Z,7.47
2023-11-30T15:45:29.703Z,7.28
2023-11-30T15:48:32.115Z,7.78
2023-11-30T15:51:39.412Z,7.47
2023-11-30T15:54:41.738Z,8.73
2023-11-30T15:57:45.951Z,8.38
2023-11-30T16:00:49.233Z,9.00
2023-11-30T16:03:52.206Z,9.57
2023-11-30T16:06:56.316Z,10.50
2023-11-30T16:09:58.589Z,11.10
2023-11-30T16:16:29.072Z,8.27
2023-11-30T16:19:31.091Z,8.55
2023-11-30T16:22:34.785Z,9.00
2023-11-30T16:25:37.018Z,8.18
2023-11-30T16:28:38.933Z,9.55
2023-11-30T16:31:42.795Z,9.90
2023-11-30T16:34:44.704Z,9.05
2023-11-30T16:37:47.912Z,9.43
2023-11-30T16:40:49.802Z,9.68
2023-11-30T16:43:51.752Z,9.77
2023-11-30T16:46:53.771Z,8.88
2023-11-30T16:52:59.071Z,8.35
2023-11-30T16:56:01.091Z,9.10
2023-11-30T17:02:05.282Z,10.40
2023-11-30T17:05:08.321Z,9.73
2023-11-30T17:08:11.786Z,12.93
2023-11-30T17:11:13.862Z,8.45
2023-11-30T17:14:15.769Z,9.93
2023-11-30T17:17:17.772Z,10.10
2023-11-30T17:20:20.716Z,8.80
2023-11-30T17:23:23.926Z,13.05
2023-11-30T17:26:25.842Z,12.10
2023-11-30T17:29:27.938Z,12.90
2023-11-30T17:35:32.418Z,7.22
2023-11-30T17:38:37.562Z,9.63
2023-11-30T17:41:42.422Z,11.43
2023-11-30T17:44:44.376Z,11.00
2023-11-30T17:47:46.715Z,11.77
2023-11-30T17:50:48.833Z,11.45
2023-11-30T17:53:52.248Z,10.50
2023-11-30T17:56:56.900Z,10.05
2023-11-30T17:59:58.901Z,10.40
2023-11-30T18:03:00.940Z,10.80
2023-11-30T18:06:05.525Z,10.40
2023-11-30T18:09:08.901Z,9.90
2023-11-30T18:12:10.917Z,9.55
2023-11-30T18:15:13.017Z,10.40
2023-11-30T18:21:16.930Z,9.98
2023-11-30T18:24:20.415Z,11.60
2023-11-30T18:27:22.843Z,11.88
2023-11-30T18:30:25.015Z,10.63
2023-11-30T18:36:29.042Z,12.23
2023-11-30T18:39:33.340Z,10.40
2023-11-30T18:42:36.055Z,10.98
2023-11-30T18:45:39.815Z,10.70
2023-11-30T18:48:42.365Z,11.10
2023-11-30T18:51:44.420Z,10.88
2023-11-30T18:54:49.321Z,10.98
2023-11-30T18:57:53.563Z,11.38
2023-11-30T19:00:58.559Z,11.95
2023-11-30T19:04:00.693Z,12.23
2023-11-30T19:07:02.850Z,13.98
2023-11-30T19:13:08.858Z,12.75
2023-11-30T19:16:16.807Z,11.20
2023-11-30T19:19:19.054Z,10.63
2023-11-30T19:22:22.803Z,11.13
2023-11-30T19:25:26.299Z,11.27
2023-11-30T19:28:28.809Z,10.85
2023-11-30T19:31:31.377Z,11.18
2023-11-30T19:34:33.688Z,11.43
2023-11-30T19:37:35.580Z,12.75
2023-11-30T19:40:38.805Z,11.52
2023-11-30T19:43:40.879Z,11.75
2023-11-30T19:49:45.781Z,11.15
2023-11-30T19:52:47.676Z,10.45
2023-11-30T19:55:52.135Z,11.38
2023-11-30T19:58:54.209Z,11.10
2023-11-30T20:01:58.741Z,12.25
2023-11-30T20:05:00.971Z,13.55
2023-11-30T20:11:10.923Z,11.00
2023-11-30T20:14:12.767Z,11.13
2023-11-30T20:17:14.847Z,10.25
2023-11-30T20:20:17.361Z,14.98
2023-11-30T20:23:19.751Z,12.02
2023-11-30T20:26:23.420Z,10.40
2023-11-30T20:29:27.287Z,10.73
2023-11-30T20:32:35.501Z,11.57
2023-11-30T20:35:37.773Z,12.55
2023-11-30T20:41:47.424Z,9.85
2023-11-30T20:44:52.992Z,11.23
2023-11-30T20:47:55.250Z,9.93
2023-11-30T20:50:57.418Z,9.02
2023-11-30T20:57:05.400Z,12.32
2023-11-30T21:00:09.859Z,15.95
2023-11-30T21:03:11.989Z,15.40
2023-11-30T21:06:14.145Z,22.13
2023-11-30T21:12:19.451Z,23.02
2023-11-30T21:15:21.521Z,22.85
2023-11-30T21:21:25.845Z,22.50
2023-11-30T21:27:33.217Z,22.17
2023-11-30T21:30:35.250Z,19.90
2023-11-30T21:33:37.462Z,19.00
2023-11-30T21:36:43.463Z,14.50
2023-11-30T21:39:45.905Z,14.05
2023-11-30T21:42:50.290Z,15.85
2023-11-30T21:45:52.465Z,14.77
2023-11-30T21:51:56.795Z,12.35
2023-11-30T21:54:58.757Z,12.52
2023-11-30T21:58:02.173Z,11.57
2023-11-30T22:01:06.029Z,10.48
2023-11-30T22:04:08.336Z,10.45
2023-11-30T22:10:13.300Z,9.02
2023-11-30T22:13:16.726Z,9.25
2023-11-30T22:16:26.022Z,10.27
2023-11-30T22:19:31.596Z,10.70
2023-11-30T22:22:34.589Z,12.20
2023-11-30T22:25:36.731Z,11.80
2023-11-30T22:31:42.592Z,10.23
2023-11-30T22:34:44.937Z,12.30
2023-11-30T22:37:47.098Z,13.18
2023-11-30T22:40:49.697Z,12.25
2023-11-30T22:43:53.218Z,11.35
2023-11-30T22:46:55.404Z,10.02
2023-11-30T22:49:57.699Z,10.75
2023-11-30T22:52:59.923Z,10.02
2023-11-30T22:56:01.967Z,7.65
2023-11-30T22:59:07.244Z,6.45
2023-11-30T23:02:09.870Z,7.10
2023-11-30T23:05:13.326Z,7.50
2023-11-30T23:08:16.111Z,8.48
2023-11-30T23:11:18.463Z,8.05
2023-11-30T23:14:23.623Z,8.80
2023-11-30T23:17:25.764Z,8.80
2023-11-30T23:23:29.580Z,6.95
2023-11-30T23:29:37.826Z,7.55
2023-11-30T23:32:40.312Z,7.28
2023-11-30T23:35:42.804Z,8.98
2023-11-30T23:38:45.446Z,9.13
2023-11-30T23:41:47.557Z,9.98
2023-11-30T23:47:53.089Z,8.07
2023-11-30T23:53:59.311Z,9.35
2023-11-30T23:57:01.383Z,9.00
